sensor_id;sensor_type;location;lat;lon;timestamp;P1;durP1;ratioP1;P2;durP2;ratioP2
11921;SDS011;6021;51.182;3.160;2023-09-30T00:02:26;14.47;;;6.87;;
11921;SDS011;6021;51.182;3.160;2023-09-30T00:04:54;11.60;;;5.93;;
11921;SDS011;6021;51.182;3.160;2023-09-30T00:07:23;10.70;;;6.13;;
11921;SDS011;6021;51.182;3.160;2023-09-30T00:09:53;10.83;;;5.73;;
11921;SDS011;6021;51.182;3.160;2023-09-30T00:12:21;10.13;;;6.07;;
11921;SDS011;6021;51.182;3.160;2023-09-30T00:14:49;11.40;;;6.27;;
11921;SDS011;6021;51.182;3.160;2023-09-30T00:17:18;14.43;;;6.27;;
11921;SDS011;6021;51.182;3.160;2023-09-30T00:19:46;12.63;;;6.60;;
11921;SDS011;6021;51.182;3.160;2023-09-30T00:22:14;9.77;;;6.03;;
11921;SDS011;6021;51.182;3.160;2023-09-30T00:24:43;9.87;;;5.70;;
11921;SDS011;6021;51.182;3.160;2023-09-30T00:27:11;13.07;;;6.83;;
11921;SDS011;6021;51.182;3.160;2023-09-30T00:29:39;8.70;;;5.80;;
11921;SDS011;6021;51.182;3.160;2023-09-30T00:32:08;12.03;;;5.97;;
11921;SDS011;6021;51.182;3.160;2023-09-30T00:34:36;14.30;;;7.00;;
11921;SDS011;6021;51.182;3.160;2023-09-30T00:37:04;14.03;;;7.07;;
11921;SDS011;6021;51.182;3.160;2023-09-30T00:39:32;13.10;;;6.70;;
11921;SDS011;6021;51.182;3.160;2023-09-30T00:42:01;12.43;;;6.70;;
11921;SDS011;6021;51.182;3.160;2023-09-30T00:44:31;16.03;;;7.83;;
11921;SDS011;6021;51.182;3.160;2023-09-30T00:46:59;11.47;;;6.63;;
11921;SDS011;6021;51.182;3.160;2023-09-30T00:49:28;17.57;;;7.33;;
11921;SDS011;6021;51.182;3.160;2023-09-30T00:51:57;16.07;;;7.07;;
11921;SDS011;6021;51.182;3.160;2023-09-30T00:54:28;15.17;;;7.00;;
11921;SDS011;6021;51.182;3.160;2023-09-30T00:56:58;12.57;;;6.40;;
11921;SDS011;6021;51.182;3.160;2023-09-30T00:59:28;11.83;;;6.63;;
11921;SDS011;6021;51.182;3.160;2023-09-30T01:01:59;15.10;;;6.90;;
11921;SDS011;6021;51.182;3.160;2023-09-30T01:04:28;14.67;;;6.63;;
11921;SDS011;6021;51.182;3.160;2023-09-30T01:06:57;12.83;;;6.80;;
11921;SDS011;6021;51.182;3.160;2023-09-30T01:09:25;13.63;;;7.17;;
11921;SDS011;6021;51.182;3.160;2023-09-30T01:11:54;16.93;;;7.10;;
11921;SDS011;6021;51.182;3.160;2023-09-30T01:14:26;13.80;;;7.03;;
11921;SDS011;6021;51.182;3.160;2023-09-30T01:16:55;15.80;;;6.90;;
11921;SDS011;6021;51.182;3.160;2023-09-30T01:19:24;14.20;;;6.13;;
11921;SDS011;6021;51.182;3.160;2023-09-30T01:21:57;14.27;;;6.13;;
11921;SDS011;6021;51.182;3.160;2023-09-30T01:24:29;10.30;;;5.53;;
11921;SDS011;6021;51.182;3.160;2023-09-30T01:26:58;13.77;;;6.40;;
11921;SDS011;6021;51.182;3.160;2023-09-30T01:29:26;14.07;;;6.70;;
11921;SDS011;6021;51.182;3.160;2023-09-30T01:31:55;14.70;;;6.00;;
11921;SDS011;6021;51.182;3.160;2023-09-30T01:34:23;13.77;;;6.37;;
11921;SDS011;6021;51.182;3.160;2023-09-30T01:36:52;14.23;;;5.70;;
11921;SDS011;6021;51.182;3.160;2023-09-30T01:39:20;12.87;;;5.47;;
11921;SDS011;6021;51.182;3.160;2023-09-30T01:41:48;13.20;;;5.87;;
11921;SDS011;6021;51.182;3.160;2023-09-30T01:44:17;13.03;;;5.60;;
11921;SDS011;6021;51.182;3.160;2023-09-30T01:46:45;11.50;;;5.60;;
11921;SDS011;6021;51.182;3.160;2023-09-30T01:49:13;12.47;;;5.53;;
11921;SDS011;6021;51.182;3.160;2023-09-30T01:51:42;12.00;;;5.90;;
11921;SDS011;6021;51.182;3.160;2023-09-30T01:54:10;13.43;;;5.53;;
11921;SDS011;6021;51.182;3.160;2023-09-30T01:56:38;12.53;;;6.10;;
11921;SDS011;6021;51.182;3.160;2023-09-30T01:59:07;11.57;;;5.73;;
11921;SDS011;6021;51.182;3.160;2023-09-30T02:01:35;15.77;;;6.03;;
11921;SDS011;6021;51.182;3.160;2023-09-30T02:04:03;10.77;;;6.00;;
11921;SDS011;6021;51.182;3.160;2023-09-30T02:06:33;11.20;;;5.87;;
11921;SDS011;6021;51.182;3.160;2023-09-30T02:09:02;10.57;;;5.60;;
11921;SDS011;6021;51.182;3.160;2023-09-30T02:11:32;11.73;;;5.20;;
11921;SDS011;6021;51.182;3.160;2023-09-30T02:14:02;14.53;;;5.70;;
11921;SDS011;6021;51.182;3.160;2023-09-30T02:16:32;9.17;;;4.90;;
11921;SDS011;6021;51.182;3.160;2023-09-30T02:19:00;13.20;;;5.70;;
11921;SDS011;6021;51.182;3.160;2023-09-30T02:21:29;13.80;;;5.73;;
11921;SDS011;6021;51.182;3.160;2023-09-30T02:23:57;15.73;;;6.20;;
11921;SDS011;6021;51.182;3.160;2023-09-30T02:26:25;12.57;;;5.87;;
11921;SDS011;6021;51.182;3.160;2023-09-30T02:28:55;14.40;;;5.87;;
11921;SDS011;6021;51.182;3.160;2023-09-30T02:31:28;14.23;;;5.80;;
11921;SDS011;6021;51.182;3.160;2023-09-30T02:33:56;10.33;;;5.77;;
11921;SDS011;6021;51.182;3.160;2023-09-30T02:36:25;13.47;;;6.27;;
11921;SDS011;6021;51.182;3.160;2023-09-30T02:38:53;14.20;;;6.70;;
11921;SDS011;6021;51.182;3.160;2023-09-30T02:41:22;16.10;;;6.70;;
11921;SDS011;6021;51.182;3.160;2023-09-30T02:43:50;16.33;;;6.77;;
11921;SDS011;6021;51.182;3.160;2023-09-30T02:46:18;11.57;;;5.70;;
11921;SDS011;6021;51.182;3.160;2023-09-30T02:48:48;13.50;;;5.77;;
11921;SDS011;6021;51.182;3.160;2023-09-30T02:51:16;13.30;;;5.80;;
11921;SDS011;6021;51.182;3.160;2023-09-30T02:53:44;16.43;;;6.23;;
11921;SDS011;6021;51.182;3.160;2023-09-30T02:56:14;11.33;;;5.60;;
11921;SDS011;6021;51.182;3.160;2023-09-30T02:58:43;13.87;;;6.30;;
11921;SDS011;6021;51.182;3.160;2023-09-30T03:01:14;14.20;;;5.97;;
11921;SDS011;6021;51.182;3.160;2023-09-30T03:03:43;11.93;;;5.90;;
11921;SDS011;6021;51.182;3.160;2023-09-30T03:06:12;14.43;;;6.20;;
11921;SDS011;6021;51.182;3.160;2023-09-30T03:08:41;15.63;;;6.47;;
11921;SDS011;6021;51.182;3.160;2023-09-30T03:11:10;14.03;;;6.50;;
11921;SDS011;6021;51.182;3.160;2023-09-30T03:13:39;12.97;;;5.50;;
11921;SDS011;6021;51.182;3.160;2023-09-30T03:16:08;17.13;;;6.63;;
11921;SDS011;6021;51.182;3.160;2023-09-30T03:18:37;12.50;;;5.83;;
11921;SDS011;6021;51.182;3.160;2023-09-30T03:21:12;10.77;;;5.77;;
11921;SDS011;6021;51.182;3.160;2023-09-30T03:23:36;14.80;;;6.30;;
11921;SDS011;6021;51.182;3.160;2023-09-30T03:26:05;14.73;;;6.63;;
11921;SDS011;6021;51.182;3.160;2023-09-30T03:28:36;13.80;;;6.77;;
11921;SDS011;6021;51.182;3.160;2023-09-30T03:31:05;13.07;;;6.73;;
11921;SDS011;6021;51.182;3.160;2023-09-30T03:33:34;16.97;;;6.77;;
11921;SDS011;6021;51.182;3.160;2023-09-30T03:36:02;14.90;;;6.80;;
11921;SDS011;6021;51.182;3.160;2023-09-30T03:38:31;12.70;;;6.40;;
11921;SDS011;6021;51.182;3.160;2023-09-30T03:40:59;15.17;;;6.87;;
11921;SDS011;6021;51.182;3.160;2023-09-30T03:43:27;11.33;;;6.97;;
11921;SDS011;6021;51.182;3.160;2023-09-30T03:45:56;15.90;;;7.93;;
11921;SDS011;6021;51.182;3.160;2023-09-30T03:48:26;15.87;;;7.67;;
11921;SDS011;6021;51.182;3.160;2023-09-30T03:50:54;14.37;;;6.60;;
11921;SDS011;6021;51.182;3.160;2023-09-30T03:53:22;12.00;;;5.97;;
11921;SDS011;6021;51.182;3.160;2023-09-30T03:55:52;12.57;;;6.27;;
11921;SDS011;6021;51.182;3.160;2023-09-30T03:58:21;15.13;;;7.50;;
11921;SDS011;6021;51.182;3.160;2023-09-30T04:00:50;14.27;;;7.37;;
11921;SDS011;6021;51.182;3.160;2023-09-30T04:03:18;13.53;;;6.73;;
11921;SDS011;6021;51.182;3.160;2023-09-30T04:05:46;13.00;;;6.47;;
11921;SDS011;6021;51.182;3.160;2023-09-30T04:08:16;12.27;;;6.57;;
11921;SDS011;6021;51.182;3.160;2023-09-30T04:10:45;13.23;;;6.83;;
11921;SDS011;6021;51.182;3.160;2023-09-30T04:13:14;17.03;;;7.77;;
11921;SDS011;6021;51.182;3.160;2023-09-30T04:15:43;12.43;;;6.87;;
11921;SDS011;6021;51.182;3.160;2023-09-30T04:18:13;14.47;;;7.37;;
11921;SDS011;6021;51.182;3.160;2023-09-30T04:20:41;13.83;;;7.10;;
11921;SDS011;6021;51.182;3.160;2023-09-30T04:23:11;14.50;;;7.30;;
11921;SDS011;6021;51.182;3.160;2023-09-30T04:25:40;14.27;;;7.67;;
11921;SDS011;6021;51.182;3.160;2023-09-30T04:28:09;11.30;;;6.87;;
11921;SDS011;6021;51.182;3.160;2023-09-30T04:30:38;15.37;;;7.63;;
11921;SDS011;6021;51.182;3.160;2023-09-30T04:33:06;16.07;;;8.07;;
11921;SDS011;6021;51.182;3.160;2023-09-30T04:35:35;12.63;;;7.33;;
11921;SDS011;6021;51.182;3.160;2023-09-30T04:38:05;15.80;;;7.17;;
11921;SDS011;6021;51.182;3.160;2023-09-30T04:40:34;14.67;;;7.93;;
11921;SDS011;6021;51.182;3.160;2023-09-30T04:43:02;12.77;;;7.00;;
11921;SDS011;6021;51.182;3.160;2023-09-30T04:45:32;13.50;;;6.73;;
11921;SDS011;6021;51.182;3.160;2023-09-30T04:48:00;10.97;;;6.73;;
11921;SDS011;6021;51.182;3.160;2023-09-30T04:50:28;9.77;;;6.17;;
11921;SDS011;6021;51.182;3.160;2023-09-30T04:52:57;14.67;;;7.60;;
11921;SDS011;6021;51.182;3.160;2023-09-30T04:55:25;13.77;;;7.20;;
11921;SDS011;6021;51.182;3.160;2023-09-30T04:57:54;15.40;;;7.40;;
11921;SDS011;6021;51.182;3.160;2023-09-30T05:00:24;15.77;;;8.30;;
11921;SDS011;6021;51.182;3.160;2023-09-30T05:02:52;14.23;;;8.10;;
11921;SDS011;6021;51.182;3.160;2023-09-30T05:05:22;14.87;;;7.97;;
11921;SDS011;6021;51.182;3.160;2023-09-30T05:07:50;13.63;;;8.13;;
11921;SDS011;6021;51.182;3.160;2023-09-30T05:10:19;14.67;;;7.40;;
11921;SDS011;6021;51.182;3.160;2023-09-30T05:12:48;10.97;;;6.90;;
11921;SDS011;6021;51.182;3.160;2023-09-30T05:15:16;15.30;;;7.20;;
11921;SDS011;6021;51.182;3.160;2023-09-30T05:17:46;13.77;;;7.43;;
11921;SDS011;6021;51.182;3.160;2023-09-30T05:20:15;12.03;;;7.73;;
11921;SDS011;6021;51.182;3.160;2023-09-30T05:22:44;10.27;;;6.73;;
11921;SDS011;6021;51.182;3.160;2023-09-30T05:25:13;10.57;;;6.80;;
11921;SDS011;6021;51.182;3.160;2023-09-30T05:27:44;10.03;;;6.83;;
11921;SDS011;6021;51.182;3.160;2023-09-30T05:30:14;9.43;;;7.07;;
11921;SDS011;6021;51.182;3.160;2023-09-30T05:32:43;11.10;;;7.17;;
11921;SDS011;6021;51.182;3.160;2023-09-30T05:35:12;11.03;;;6.70;;
11921;SDS011;6021;51.182;3.160;2023-09-30T05:37:43;10.70;;;6.33;;
11921;SDS011;6021;51.182;3.160;2023-09-30T05:40:15;12.10;;;7.10;;
11921;SDS011;6021;51.182;3.160;2023-09-30T05:42:45;10.50;;;7.10;;
11921;SDS011;6021;51.182;3.160;2023-09-30T05:45:13;9.93;;;6.30;;
11921;SDS011;6021;51.182;3.160;2023-09-30T05:47:42;9.00;;;6.40;;
11921;SDS011;6021;51.182;3.160;2023-09-30T05:50:12;7.87;;;5.60;;
11921;SDS011;6021;51.182;3.160;2023-09-30T05:52:43;10.77;;;6.50;;
11921;SDS011;6021;51.182;3.160;2023-09-30T05:55:12;9.07;;;6.10;;
11921;SDS011;6021;51.182;3.160;2023-09-30T05:57:41;11.17;;;7.07;;
11921;SDS011;6021;51.182;3.160;2023-09-30T06:00:11;13.77;;;7.70;;
11921;SDS011;6021;51.182;3.160;2023-09-30T06:02:49;15.93;;;9.10;;
11921;SDS011;6021;51.182;3.160;2023-09-30T06:05:18;12.83;;;7.50;;
11921;SDS011;6021;51.182;3.160;2023-09-30T06:07:49;10.67;;;7.57;;
11921;SDS011;6021;51.182;3.160;2023-09-30T06:10:17;14.47;;;8.03;;
11921;SDS011;6021;51.182;3.160;2023-09-30T06:12:50;13.43;;;8.50;;
11921;SDS011;6021;51.182;3.160;2023-09-30T06:15:23;13.30;;;8.70;;
11921;SDS011;6021;51.182;3.160;2023-09-30T06:17:55;15.60;;;8.60;;
11921;SDS011;6021;51.182;3.160;2023-09-30T06:20:24;13.40;;;8.70;;
11921;SDS011;6021;51.182;3.160;2023-09-30T06:22:53;13.30;;;9.20;;
11921;SDS011;6021;51.182;3.160;2023-09-30T06:25:21;13.73;;;9.57;;
11921;SDS011;6021;51.182;3.160;2023-09-30T06:27:54;12.13;;;8.83;;
11921;SDS011;6021;51.182;3.160;2023-09-30T06:30:22;10.97;;;8.00;;
11921;SDS011;6021;51.182;3.160;2023-09-30T06:32:56;10.97;;;8.77;;
11921;SDS011;6021;51.182;3.160;2023-09-30T06:35:26;13.20;;;8.90;;
11921;SDS011;6021;51.182;3.160;2023-09-30T06:37:57;14.23;;;9.50;;
11921;SDS011;6021;51.182;3.160;2023-09-30T06:40:25;11.23;;;8.23;;
11921;SDS011;6021;51.182;3.160;2023-09-30T06:42:54;10.67;;;8.20;;
11921;SDS011;6021;51.182;3.160;2023-09-30T06:45:22;10.10;;;7.63;;
11921;SDS011;6021;51.182;3.160;2023-09-30T06:47:51;11.13;;;8.00;;
11921;SDS011;6021;51.182;3.160;2023-09-30T06:50:21;12.37;;;8.47;;
11921;SDS011;6021;51.182;3.160;2023-09-30T06:52:50;12.37;;;8.60;;
11921;SDS011;6021;51.182;3.160;2023-09-30T06:55:18;14.33;;;9.47;;
11921;SDS011;6021;51.182;3.160;2023-09-30T06:57:47;11.87;;;8.67;;
11921;SDS011;6021;51.182;3.160;2023-09-30T07:00:16;12.17;;;8.70;;
11921;SDS011;6021;51.182;3.160;2023-09-30T07:02:44;10.90;;;8.03;;
11921;SDS011;6021;51.182;3.160;2023-09-30T07:05:13;13.23;;;8.77;;
11921;SDS011;6021;51.182;3.160;2023-09-30T07:07:42;14.50;;;9.80;;
11921;SDS011;6021;51.182;3.160;2023-09-30T07:10:11;16.77;;;10.33;;
11921;SDS011;6021;51.182;3.160;2023-09-30T07:12:40;15.10;;;10.10;;
11921;SDS011;6021;51.182;3.160;2023-09-30T07:15:09;15.77;;;10.17;;
11921;SDS011;6021;51.182;3.160;2023-09-30T07:17:38;17.90;;;10.00;;
11921;SDS011;6021;51.182;3.160;2023-09-30T07:20:07;14.53;;;9.40;;
11921;SDS011;6021;51.182;3.160;2023-09-30T07:22:36;14.83;;;10.10;;
11921;SDS011;6021;51.182;3.160;2023-09-30T07:25:04;17.53;;;10.40;;
11921;SDS011;6021;51.182;3.160;2023-09-30T07:27:33;16.53;;;10.57;;
11921;SDS011;6021;51.182;3.160;2023-09-30T07:30:01;18.57;;;10.80;;
11921;SDS011;6021;51.182;3.160;2023-09-30T07:32:32;17.67;;;10.43;;
11921;SDS011;6021;51.182;3.160;2023-09-30T07:35:00;17.80;;;10.50;;
11921;SDS011;6021;51.182;3.160;2023-09-30T07:37:28;14.67;;;9.57;;
11921;SDS011;6021;51.182;3.160;2023-09-30T07:39:57;11.90;;;8.80;;
11921;SDS011;6021;51.182;3.160;2023-09-30T07:42:26;13.33;;;9.17;;
11921;SDS011;6021;51.182;3.160;2023-09-30T07:44:54;15.33;;;9.93;;
11921;SDS011;6021;51.182;3.160;2023-09-30T07:47:23;17.03;;;9.90;;
11921;SDS011;6021;51.182;3.160;2023-09-30T07:49:51;14.67;;;9.50;;
11921;SDS011;6021;51.182;3.160;2023-09-30T07:52:19;18.13;;;10.07;;
11921;SDS011;6021;51.182;3.160;2023-09-30T07:54:48;19.63;;;10.90;;
11921;SDS011;6021;51.182;3.160;2023-09-30T07:57:16;20.07;;;10.50;;
11921;SDS011;6021;51.182;3.160;2023-09-30T07:59:44;20.90;;;10.80;;
11921;SDS011;6021;51.182;3.160;2023-09-30T08:02:13;17.17;;;10.67;;
11921;SDS011;6021;51.182;3.160;2023-09-30T08:04:41;17.77;;;11.37;;
11921;SDS011;6021;51.182;3.160;2023-09-30T08:07:11;20.30;;;11.07;;
11921;SDS011;6021;51.182;3.160;2023-09-30T08:09:40;18.60;;;10.83;;
11921;SDS011;6021;51.182;3.160;2023-09-30T08:12:08;14.37;;;8.90;;
11921;SDS011;6021;51.182;3.160;2023-09-30T08:14:37;12.53;;;8.60;;
11921;SDS011;6021;51.182;3.160;2023-09-30T08:17:05;12.30;;;7.80;;
11921;SDS011;6021;51.182;3.160;2023-09-30T08:19:33;13.00;;;7.40;;
11921;SDS011;6021;51.182;3.160;2023-09-30T08:22:02;13.97;;;7.90;;
11921;SDS011;6021;51.182;3.160;2023-09-30T08:24:31;14.07;;;7.70;;
11921;SDS011;6021;51.182;3.160;2023-09-30T08:26:59;13.90;;;7.70;;
11921;SDS011;6021;51.182;3.160;2023-09-30T08:29:27;12.80;;;7.50;;
11921;SDS011;6021;51.182;3.160;2023-09-30T08:31:56;12.23;;;7.50;;
11921;SDS011;6021;51.182;3.160;2023-09-30T08:34:24;13.63;;;7.70;;
11921;SDS011;6021;51.182;3.160;2023-09-30T08:36:52;10.50;;;7.23;;
11921;SDS011;6021;51.182;3.160;2023-09-30T08:39:21;9.73;;;6.87;;
11921;SDS011;6021;51.182;3.160;2023-09-30T08:41:50;12.63;;;7.70;;
11921;SDS011;6021;51.182;3.160;2023-09-30T08:44:19;13.30;;;7.47;;
11921;SDS011;6021;51.182;3.160;2023-09-30T08:46:48;10.77;;;7.10;;
11921;SDS011;6021;51.182;3.160;2023-09-30T08:49:19;11.07;;;7.30;;
11921;SDS011;6021;51.182;3.160;2023-09-30T08:51:48;13.80;;;7.43;;
11921;SDS011;6021;51.182;3.160;2023-09-30T08:54:18;11.67;;;7.10;;
11921;SDS011;6021;51.182;3.160;2023-09-30T08:56:47;12.50;;;6.83;;
11921;SDS011;6021;51.182;3.160;2023-09-30T08:59:16;13.40;;;7.23;;
11921;SDS011;6021;51.182;3.160;2023-09-30T09:01:45;11.80;;;7.23;;
11921;SDS011;6021;51.182;3.160;2023-09-30T09:04:13;13.57;;;7.10;;
11921;SDS011;6021;51.182;3.160;2023-09-30T09:06:42;13.67;;;6.93;;
11921;SDS011;6021;51.182;3.160;2023-09-30T09:09:16;10.10;;;6.27;;
11921;SDS011;6021;51.182;3.160;2023-09-30T09:11:45;14.10;;;7.87;;
11921;SDS011;6021;51.182;3.160;2023-09-30T09:14:14;11.53;;;7.17;;
11921;SDS011;6021;51.182;3.160;2023-09-30T09:16:52;14.97;;;7.90;;
11921;SDS011;6021;51.182;3.160;2023-09-30T09:19:22;10.33;;;7.10;;
11921;SDS011;6021;51.182;3.160;2023-09-30T09:21:58;13.43;;;7.43;;
11921;SDS011;6021;51.182;3.160;2023-09-30T09:24:31;11.73;;;7.80;;
11921;SDS011;6021;51.182;3.160;2023-09-30T09:27:09;14.63;;;7.40;;
11921;SDS011;6021;51.182;3.160;2023-09-30T09:29:34;13.57;;;7.57;;
11921;SDS011;6021;51.182;3.160;2023-09-30T09:32:07;11.57;;;6.90;;
11921;SDS011;6021;51.182;3.160;2023-09-30T09:34:37;12.03;;;6.73;;
11921;SDS011;6021;51.182;3.160;2023-09-30T09:37:19;12.27;;;6.53;;
11921;SDS011;6021;51.182;3.160;2023-09-30T09:39:57;9.60;;;6.07;;
11921;SDS011;6021;51.182;3.160;2023-09-30T09:42:32;10.37;;;6.17;;
11921;SDS011;6021;51.182;3.160;2023-09-30T09:45:06;9.73;;;5.60;;
11921;SDS011;6021;51.182;3.160;2023-09-30T09:47:32;11.90;;;6.13;;
11921;SDS011;6021;51.182;3.160;2023-09-30T09:50:02;12.50;;;6.07;;
11921;SDS011;6021;51.182;3.160;2023-09-30T09:52:32;10.50;;;5.60;;
11921;SDS011;6021;51.182;3.160;2023-09-30T09:55:02;11.57;;;5.33;;
11921;SDS011;6021;51.182;3.160;2023-09-30T09:57:31;8.07;;;4.80;;
11921;SDS011;6021;51.182;3.160;2023-09-30T10:00:01;10.83;;;5.33;;
11921;SDS011;6021;51.182;3.160;2023-09-30T10:02:31;8.53;;;5.20;;
11921;SDS011;6021;51.182;3.160;2023-09-30T10:05:00;9.47;;;4.73;;
11921;SDS011;6021;51.182;3.160;2023-09-30T10:07:33;9.57;;;4.80;;
11921;SDS011;6021;51.182;3.160;2023-09-30T10:10:02;9.47;;;4.90;;
11921;SDS011;6021;51.182;3.160;2023-09-30T10:12:37;9.80;;;5.50;;
11921;SDS011;6021;51.182;3.160;2023-09-30T10:15:49;8.57;;;5.07;;
11921;SDS011;6021;51.182;3.160;2023-09-30T10:18:02;8.03;;;4.60;;
11921;SDS011;6021;51.182;3.160;2023-09-30T10:20:34;6.47;;;4.40;;
11921;SDS011;6021;51.182;3.160;2023-09-30T10:23:23;8.83;;;4.60;;
11921;SDS011;6021;51.182;3.160;2023-09-30T10:25:53;8.00;;;4.50;;
11921;SDS011;6021;51.182;3.160;2023-09-30T10:28:34;10.10;;;4.73;;
11921;SDS011;6021;51.182;3.160;2023-09-30T10:31:16;10.23;;;4.67;;
11921;SDS011;6021;51.182;3.160;2023-09-30T10:36:34;9.80;;;4.73;;
11921;SDS011;6021;51.182;3.160;2023-09-30T10:39:05;10.20;;;4.83;;
11921;SDS011;6021;51.182;3.160;2023-09-30T10:46:58;9.83;;;5.10;;
11921;SDS011;6021;51.182;3.160;2023-09-30T10:52:02;12.57;;;5.10;;
11921;SDS011;6021;51.182;3.160;2023-09-30T10:54:31;8.07;;;4.93;;
11921;SDS011;6021;51.182;3.160;2023-09-30T10:57:00;8.60;;;4.87;;
11921;SDS011;6021;51.182;3.160;2023-09-30T10:59:30;7.57;;;4.10;;
11921;SDS011;6021;51.182;3.160;2023-09-30T11:02:00;9.57;;;4.40;;
11921;SDS011;6021;51.182;3.160;2023-09-30T11:04:30;6.33;;;3.93;;
11921;SDS011;6021;51.182;3.160;2023-09-30T11:07:00;9.60;;;4.63;;
11921;SDS011;6021;51.182;3.160;2023-09-30T11:09:29;9.00;;;4.63;;
11921;SDS011;6021;51.182;3.160;2023-09-30T11:12:01;10.57;;;4.70;;
11921;SDS011;6021;51.182;3.160;2023-09-30T11:14:32;8.37;;;4.47;;
11921;SDS011;6021;51.182;3.160;2023-09-30T11:17:01;8.83;;;4.53;;
11921;SDS011;6021;51.182;3.160;2023-09-30T11:19:37;8.73;;;4.13;;
11921;SDS011;6021;51.182;3.160;2023-09-30T11:22:15;9.13;;;3.80;;
11921;SDS011;6021;51.182;3.160;2023-09-30T11:24:44;7.30;;;3.50;;
11921;SDS011;6021;51.182;3.160;2023-09-30T11:27:12;9.50;;;3.40;;
11921;SDS011;6021;51.182;3.160;2023-09-30T11:29:51;7.73;;;3.13;;
11921;SDS011;6021;51.182;3.160;2023-09-30T11:32:26;7.20;;;2.87;;
11921;SDS011;6021;51.182;3.160;2023-09-30T11:34:58;9.00;;;3.00;;
11921;SDS011;6021;51.182;3.160;2023-09-30T11:37:32;7.33;;;3.10;;
11921;SDS011;6021;51.182;3.160;2023-09-30T11:40:19;7.97;;;3.10;;
11921;SDS011;6021;51.182;3.160;2023-09-30T11:42:37;8.27;;;3.20;;
11921;SDS011;6021;51.182;3.160;2023-09-30T11:45:21;5.67;;;2.97;;
11921;SDS011;6021;51.182;3.160;2023-09-30T11:47:49;7.23;;;2.90;;
11921;SDS011;6021;51.182;3.160;2023-09-30T11:50:18;8.23;;;2.90;;
11921;SDS011;6021;51.182;3.160;2023-09-30T11:52:46;11.60;;;3.47;;
11921;SDS011;6021;51.182;3.160;2023-09-30T11:55:15;5.80;;;2.40;;
11921;SDS011;6021;51.182;3.160;2023-09-30T11:57:45;8.63;;;3.00;;
11921;SDS011;6021;51.182;3.160;2023-09-30T12:00:14;7.27;;;2.53;;
11921;SDS011;6021;51.182;3.160;2023-09-30T12:02:43;6.27;;;2.60;;
11921;SDS011;6021;51.182;3.160;2023-09-30T12:05:11;10.53;;;3.00;;
11921;SDS011;6021;51.182;3.160;2023-09-30T12:07:40;9.03;;;3.00;;
11921;SDS011;6021;51.182;3.160;2023-09-30T12:10:08;7.37;;;2.90;;
11921;SDS011;6021;51.182;3.160;2023-09-30T12:12:37;8.33;;;3.33;;
11921;SDS011;6021;51.182;3.160;2023-09-30T12:15:06;6.90;;;2.80;;
11921;SDS011;6021;51.182;3.160;2023-09-30T12:17:36;5.30;;;2.50;;
11921;SDS011;6021;51.182;3.160;2023-09-30T12:20:06;6.90;;;3.07;;
11921;SDS011;6021;51.182;3.160;2023-09-30T12:22:35;7.67;;;2.50;;
11921;SDS011;6021;51.182;3.160;2023-09-30T12:25:04;8.13;;;2.90;;
11921;SDS011;6021;51.182;3.160;2023-09-30T12:27:33;7.20;;;2.83;;
11921;SDS011;6021;51.182;3.160;2023-09-30T12:30:02;7.10;;;3.23;;
11921;SDS011;6021;51.182;3.160;2023-09-30T12:32:32;7.30;;;3.10;;
11921;SDS011;6021;51.182;3.160;2023-09-30T12:35:01;8.20;;;3.30;;
11921;SDS011;6021;51.182;3.160;2023-09-30T12:37:31;7.60;;;3.00;;
11921;SDS011;6021;51.182;3.160;2023-09-30T12:39:59;9.13;;;2.83;;
11921;SDS011;6021;51.182;3.160;2023-09-30T12:42:29;7.20;;;2.77;;
11921;SDS011;6021;51.182;3.160;2023-09-30T12:44:57;9.43;;;3.03;;
11921;SDS011;6021;51.182;3.160;2023-09-30T12:47:26;7.00;;;2.70;;
11921;SDS011;6021;51.182;3.160;2023-09-30T12:49:54;6.80;;;2.60;;
11921;SDS011;6021;51.182;3.160;2023-09-30T12:52:23;7.27;;;2.80;;
11921;SDS011;6021;51.182;3.160;2023-09-30T12:54:52;7.03;;;2.63;;
11921;SDS011;6021;51.182;3.160;2023-09-30T12:57:21;6.50;;;2.70;;
11921;SDS011;6021;51.182;3.160;2023-09-30T12:59:49;6.33;;;2.60;;
11921;SDS011;6021;51.182;3.160;2023-09-30T13:02:17;5.87;;;2.30;;
11921;SDS011;6021;51.182;3.160;2023-09-30T13:04:48;7.13;;;2.63;;
11921;SDS011;6021;51.182;3.160;2023-09-30T13:07:16;5.20;;;2.40;;
11921;SDS011;6021;51.182;3.160;2023-09-30T13:12:34;9.03;;;2.60;;
11921;SDS011;6021;51.182;3.160;2023-09-30T13:15:03;7.63;;;2.53;;
11921;SDS011;6021;51.182;3.160;2023-09-30T13:17:31;5.50;;;2.30;;
11921;SDS011;6021;51.182;3.160;2023-09-30T13:20:00;7.63;;;2.60;;
11921;SDS011;6021;51.182;3.160;2023-09-30T13:22:30;5.20;;;2.20;;
11921;SDS011;6021;51.182;3.160;2023-09-30T13:25:00;7.23;;;2.60;;
11921;SDS011;6021;51.182;3.160;2023-09-30T13:27:28;6.33;;;2.43;;
11921;SDS011;6021;51.182;3.160;2023-09-30T13:32:45;5.70;;;2.47;;
11921;SDS011;6021;51.182;3.160;2023-09-30T13:35:13;6.60;;;2.57;;
11921;SDS011;6021;51.182;3.160;2023-09-30T13:37:41;6.73;;;2.13;;
11921;SDS011;6021;51.182;3.160;2023-09-30T13:40:10;7.27;;;2.40;;
11921;SDS011;6021;51.182;3.160;2023-09-30T13:42:39;6.97;;;2.17;;
11921;SDS011;6021;51.182;3.160;2023-09-30T13:45:08;7.17;;;2.17;;
11921;SDS011;6021;51.182;3.160;2023-09-30T13:50:25;7.70;;;2.50;;
11921;SDS011;6021;51.182;3.160;2023-09-30T13:52:53;5.67;;;2.00;;
11921;SDS011;6021;51.182;3.160;2023-09-30T13:55:22;4.80;;;1.90;;
11921;SDS011;6021;51.182;3.160;2023-09-30T13:57:50;6.40;;;2.00;;
11921;SDS011;6021;51.182;3.160;2023-09-30T14:00:18;6.53;;;2.07;;
11921;SDS011;6021;51.182;3.160;2023-09-30T14:02:48;5.67;;;2.20;;
11921;SDS011;6021;51.182;3.160;2023-09-30T14:05:18;7.47;;;2.20;;
11921;SDS011;6021;51.182;3.160;2023-09-30T14:07:46;6.40;;;2.10;;
11921;SDS011;6021;51.182;3.160;2023-09-30T14:10:15;5.90;;;2.20;;
11921;SDS011;6021;51.182;3.160;2023-09-30T14:12:43;4.80;;;2.10;;
11921;SDS011;6021;51.182;3.160;2023-09-30T14:15:11;5.43;;;2.30;;
11921;SDS011;6021;51.182;3.160;2023-09-30T14:17:40;5.93;;;2.20;;
11921;SDS011;6021;51.182;3.160;2023-09-30T14:20:09;5.47;;;2.10;;
11921;SDS011;6021;51.182;3.160;2023-09-30T14:22:38;6.53;;;2.10;;
11921;SDS011;6021;51.182;3.160;2023-09-30T14:25:07;6.87;;;2.30;;
11921;SDS011;6021;51.182;3.160;2023-09-30T14:27:35;5.73;;;2.17;;
11921;SDS011;6021;51.182;3.160;2023-09-30T14:30:04;9.13;;;2.60;;
11921;SDS011;6021;51.182;3.160;2023-09-30T14:32:33;6.23;;;2.20;;
11921;SDS011;6021;51.182;3.160;2023-09-30T14:35:01;7.13;;;2.27;;
11921;SDS011;6021;51.182;3.160;2023-09-30T14:37:31;5.87;;;2.20;;
11921;SDS011;6021;51.182;3.160;2023-09-30T14:40:00;6.37;;;2.20;;
11921;SDS011;6021;51.182;3.160;2023-09-30T14:42:30;4.53;;;2.30;;
11921;SDS011;6021;51.182;3.160;2023-09-30T14:44:58;6.13;;;2.20;;
11921;SDS011;6021;51.182;3.160;2023-09-30T14:47:27;5.53;;;2.20;;
11921;SDS011;6021;51.182;3.160;2023-09-30T14:49:55;6.57;;;2.30;;
11921;SDS011;6021;51.182;3.160;2023-09-30T14:52:24;7.47;;;2.10;;
11921;SDS011;6021;51.182;3.160;2023-09-30T14:54:52;7.70;;;2.30;;
11921;SDS011;6021;51.182;3.160;2023-09-30T14:57:20;7.13;;;2.20;;
11921;SDS011;6021;51.182;3.160;2023-09-30T14:59:49;8.03;;;2.10;;
11921;SDS011;6021;51.182;3.160;2023-09-30T15:02:17;8.80;;;2.20;;
11921;SDS011;6021;51.182;3.160;2023-09-30T15:04:45;7.10;;;2.30;;
11921;SDS011;6021;51.182;3.160;2023-09-30T15:07:14;7.80;;;2.13;;
11921;SDS011;6021;51.182;3.160;2023-09-30T15:09:43;6.67;;;2.20;;
11921;SDS011;6021;51.182;3.160;2023-09-30T15:12:11;8.40;;;2.47;;
11921;SDS011;6021;51.182;3.160;2023-09-30T15:14:40;6.87;;;2.20;;
11921;SDS011;6021;51.182;3.160;2023-09-30T15:17:08;6.00;;;2.20;;
11921;SDS011;6021;51.182;3.160;2023-09-30T15:19:37;7.50;;;2.20;;
11921;SDS011;6021;51.182;3.160;2023-09-30T15:22:05;8.60;;;2.30;;
11921;SDS011;6021;51.182;3.160;2023-09-30T15:24:34;6.00;;;2.43;;
11921;SDS011;6021;51.182;3.160;2023-09-30T15:27:02;7.07;;;2.20;;